sensor_id;sensor_type;location;lat;lon;timestamp;P1;durP1;ratioP1;P2;durP2;ratioP2
49183;SDS011;35021;49.214;12.270;2023-04-15T00:01:47;1.05;;;0.70;;
49183;SDS011;35021;49.214;12.270;2023-04-15T00:04:14;1.13;;;0.60;;
49183;SDS011;35021;49.214;12.270;2023-04-15T00:06:41;1.10;;;0.80;;
49183;SDS011;35021;49.214;12.270;2023-04-15T00:09:08;1.25;;;0.60;;
49183;SDS011;35021;49.214;12.270;2023-04-15T00:11:35;1.90;;;0.90;;
49183;SDS011;35021;49.214;12.270;2023-04-15T00:14:02;0.90;;;0.80;;
49183;SDS011;35021;49.214;12.270;2023-04-15T00:16:29;1.00;;;0.80;;
49183;SDS011;35021;49.214;12.270;2023-04-15T00:18:56;0.90;;;0.80;;
49183;SDS011;35021;49.214;12.270;2023-04-15T00:21:24;0.70;;;0.60;;
49183;SDS011;35021;49.214;12.270;2023-04-15T00:23:52;1.48;;;0.80;;
49183;SDS011;35021;49.214;12.270;2023-04-15T00:26:20;0.82;;;0.63;;
49183;SDS011;35021;49.214;12.270;2023-04-15T00:28:47;0.77;;;0.63;;
49183;SDS011;35021;49.214;12.270;2023-04-15T00:31:14;1.15;;;0.77;;
49183;SDS011;35021;49.214;12.270;2023-04-15T00:33:41;2.28;;;0.88;;
49183;SDS011;35021;49.214;12.270;2023-04-15T00:36:08;1.75;;;0.82;;
49183;SDS011;35021;49.214;12.270;2023-04-15T00:38:36;2.00;;;0.70;;
49183;SDS011;35021;49.214;12.270;2023-04-15T00:41:03;1.33;;;0.80;;
49183;SDS011;35021;49.214;12.270;2023-04-15T00:43:30;0.88;;;0.70;;
49183;SDS011;35021;49.214;12.270;2023-04-15T00:45:57;1.52;;;0.90;;
49183;SDS011;35021;49.214;12.270;2023-04-15T00:48:26;1.23;;;0.85;;
49183;SDS011;35021;49.214;12.270;2023-04-15T00:50:53;0.98;;;0.70;;
49183;SDS011;35021;49.214;12.270;2023-04-15T00:53:20;1.33;;;0.70;;
49183;SDS011;35021;49.214;12.270;2023-04-15T00:55:48;1.08;;;0.60;;
49183;SDS011;35021;49.214;12.270;2023-04-15T00:58:15;1.77;;;0.70;;
49183;SDS011;35021;49.214;12.270;2023-04-15T01:00:42;1.30;;;0.95;;
49183;SDS011;35021;49.214;12.270;2023-04-15T01:03:09;1.35;;;0.75;;
49183;SDS011;35021;49.214;12.270;2023-04-15T01:05:37;0.57;;;0.55;;
49183;SDS011;35021;49.214;12.270;2023-04-15T01:08:04;2.70;;;0.93;;
49183;SDS011;35021;49.214;12.270;2023-04-15T01:10:32;1.73;;;0.90;;
49183;SDS011;35021;49.214;12.270;2023-04-15T01:12:59;1.27;;;0.80;;
49183;SDS011;35021;49.214;12.270;2023-04-15T01:15:26;1.25;;;0.80;;
49183;SDS011;35021;49.214;12.270;2023-04-15T01:17:54;1.08;;;0.80;;
49183;SDS011;35021;49.214;12.270;2023-04-15T01:20:24;0.82;;;0.60;;
49183;SDS011;35021;49.214;12.270;2023-04-15T01:22:51;1.38;;;0.60;;
49183;SDS011;35021;49.214;12.270;2023-04-15T01:25:32;1.15;;;0.73;;
49183;SDS011;35021;49.214;12.270;2023-04-15T01:28:00;1.70;;;0.90;;
49183;SDS011;35021;49.214;12.270;2023-04-15T01:30:27;1.98;;;0.68;;
49183;SDS011;35021;49.214;12.270;2023-04-15T01:32:54;1.17;;;0.70;;
49183;SDS011;35021;49.214;12.270;2023-04-15T01:35:21;1.35;;;1.00;;
49183;SDS011;35021;49.214;12.270;2023-04-15T01:37:49;0.93;;;0.80;;
49183;SDS011;35021;49.214;12.270;2023-04-15T01:40:16;2.25;;;0.80;;
49183;SDS011;35021;49.214;12.270;2023-04-15T01:42:43;0.88;;;0.70;;
49183;SDS011;35021;49.214;12.270;2023-04-15T01:45:10;2.08;;;1.10;;
49183;SDS011;35021;49.214;12.270;2023-04-15T01:47:39;2.20;;;0.98;;
49183;SDS011;35021;49.214;12.270;2023-04-15T01:50:06;1.50;;;1.00;;
49183;SDS011;35021;49.214;12.270;2023-04-15T01:52:34;1.35;;;0.93;;
49183;SDS011;35021;49.214;12.270;2023-04-15T01:55:01;0.90;;;0.70;;
49183;SDS011;35021;49.214;12.270;2023-04-15T01:57:28;1.27;;;0.60;;
49183;SDS011;35021;49.214;12.270;2023-04-15T01:59:55;0.82;;;0.82;;
49183;SDS011;35021;49.214;12.270;2023-04-15T02:02:23;0.80;;;0.68;;
49183;SDS011;35021;49.214;12.270;2023-04-15T02:04:50;0.40;;;0.40;;
49183;SDS011;35021;49.214;12.270;2023-04-15T02:07:17;0.70;;;0.60;;
49183;SDS011;35021;49.214;12.270;2023-04-15T02:09:45;1.35;;;0.80;;
49183;SDS011;35021;49.214;12.270;2023-04-15T02:12:11;1.40;;;0.90;;
49183;SDS011;35021;49.214;12.270;2023-04-15T02:14:38;0.82;;;0.68;;
49183;SDS011;35021;49.214;12.270;2023-04-15T02:17:08;2.03;;;0.80;;
49183;SDS011;35021;49.214;12.270;2023-04-15T02:19:35;0.93;;;0.60;;
49183;SDS011;35021;49.214;12.270;2023-04-15T02:22:02;1.45;;;0.85;;
49183;SDS011;35021;49.214;12.270;2023-04-15T02:24:29;1.10;;;0.70;;
49183;SDS011;35021;49.214;12.270;2023-04-15T02:26:56;0.90;;;0.70;;
49183;SDS011;35021;49.214;12.270;2023-04-15T02:29:23;2.05;;;0.80;;
49183;SDS011;35021;49.214;12.270;2023-04-15T02:31:50;2.13;;;0.80;;
49183;SDS011;35021;49.214;12.270;2023-04-15T02:34:17;1.95;;;0.57;;
49183;SDS011;35021;49.214;12.270;2023-04-15T02:36:44;1.10;;;0.80;;
49183;SDS011;35021;49.214;12.270;2023-04-15T02:39:13;1.08;;;0.70;;
49183;SDS011;35021;49.214;12.270;2023-04-15T02:41:42;1.58;;;0.68;;
49183;SDS011;35021;49.214;12.270;2023-04-15T02:44:12;1.00;;;0.70;;
49183;SDS011;35021;49.214;12.270;2023-04-15T02:46:39;1.30;;;0.73;;
49183;SDS011;35021;49.214;12.270;2023-04-15T02:49:06;1.15;;;0.63;;
49183;SDS011;35021;49.214;12.270;2023-04-15T02:51:33;0.65;;;0.52;;
49183;SDS011;35021;49.214;12.270;2023-04-15T02:54:01;1.08;;;0.70;;
49183;SDS011;35021;49.214;12.270;2023-04-15T02:56:28;0.82;;;0.65;;
49183;SDS011;35021;49.214;12.270;2023-04-15T02:58:56;1.25;;;0.63;;
49183;SDS011;35021;49.214;12.270;2023-04-15T03:01:23;0.82;;;0.70;;
49183;SDS011;35021;49.214;12.270;2023-04-15T03:03:51;0.70;;;0.60;;
49183;SDS011;35021;49.214;12.270;2023-04-15T03:06:18;0.75;;;0.70;;
49183;SDS011;35021;49.214;12.270;2023-04-15T03:08:45;1.50;;;0.70;;
49183;SDS011;35021;49.214;12.270;2023-04-15T03:11:13;0.80;;;0.70;;
49183;SDS011;35021;49.214;12.270;2023-04-15T03:13:40;0.73;;;0.63;;
49183;SDS011;35021;49.214;12.270;2023-04-15T03:16:08;0.75;;;0.60;;
49183;SDS011;35021;49.214;12.270;2023-04-15T03:18:35;1.20;;;0.60;;
49183;SDS011;35021;49.214;12.270;2023-04-15T03:21:03;0.60;;;0.60;;
49183;SDS011;35021;49.214;12.270;2023-04-15T03:23:30;1.02;;;0.80;;
49183;SDS011;35021;49.214;12.270;2023-04-15T03:26:00;0.60;;;0.60;;
49183;SDS011;35021;49.214;12.270;2023-04-15T03:28:27;0.70;;;0.60;;
49183;SDS011;35021;49.214;12.270;2023-04-15T03:30:55;0.70;;;0.70;;
49183;SDS011;35021;49.214;12.270;2023-04-15T03:33:22;1.02;;;0.80;;
49183;SDS011;35021;49.214;12.270;2023-04-15T03:35:50;1.65;;;0.60;;
49183;SDS011;35021;49.214;12.270;2023-04-15T03:38:17;0.75;;;0.70;;
49183;SDS011;35021;49.214;12.270;2023-04-15T03:40:45;0.80;;;0.60;;
49183;SDS011;35021;49.214;12.270;2023-04-15T03:43:12;2.65;;;0.90;;
49183;SDS011;35021;49.214;12.270;2023-04-15T03:45:39;0.63;;;0.63;;
49183;SDS011;35021;49.214;12.270;2023-04-15T03:48:06;2.33;;;0.80;;
49183;SDS011;35021;49.214;12.270;2023-04-15T03:50:43;1.45;;;0.73;;
49183;SDS011;35021;49.214;12.270;2023-04-15T03:53:10;0.90;;;0.70;;
49183;SDS011;35021;49.214;12.270;2023-04-15T03:55:37;1.00;;;0.73;;
49183;SDS011;35021;49.214;12.270;2023-04-15T03:58:04;1.30;;;0.80;;
49183;SDS011;35021;49.214;12.270;2023-04-15T04:00:31;1.10;;;1.00;;
49183;SDS011;35021;49.214;12.270;2023-04-15T04:02:58;1.02;;;0.80;;
49183;SDS011;35021;49.214;12.270;2023-04-15T04:05:25;0.70;;;0.70;;
49183;SDS011;35021;49.214;12.270;2023-04-15T04:07:52;1.02;;;0.88;;
49183;SDS011;35021;49.214;12.270;2023-04-15T04:10:19;1.23;;;0.65;;
49183;SDS011;35021;49.214;12.270;2023-04-15T04:12:45;0.70;;;0.70;;
49183;SDS011;35021;49.214;12.270;2023-04-15T04:15:12;1.58;;;0.70;;
49183;SDS011;35021;49.214;12.270;2023-04-15T04:17:39;1.08;;;0.70;;
49183;SDS011;35021;49.214;12.270;2023-04-15T04:20:06;1.52;;;0.70;;
49183;SDS011;35021;49.214;12.270;2023-04-15T04:22:37;0.70;;;0.65;;
49183;SDS011;35021;49.214;12.270;2023-04-15T04:25:05;1.17;;;0.60;;
49183;SDS011;35021;49.214;12.270;2023-04-15T04:27:33;0.85;;;0.68;;
49183;SDS011;35021;49.214;12.270;2023-04-15T04:30:02;1.08;;;0.70;;
49183;SDS011;35021;49.214;12.270;2023-04-15T04:32:29;2.50;;;0.88;;
49183;SDS011;35021;49.214;12.270;2023-04-15T04:34:56;1.10;;;0.60;;
49183;SDS011;35021;49.214;12.270;2023-04-15T04:37:23;1.40;;;0.70;;
49183;SDS011;35021;49.214;12.270;2023-04-15T04:39:50;1.13;;;0.70;;
49183;SDS011;35021;49.214;12.270;2023-04-15T04:42:17;1.00;;;0.77;;
49183;SDS011;35021;49.214;12.270;2023-04-15T04:44:44;0.90;;;0.68;;
49183;SDS011;35021;49.214;12.270;2023-04-15T04:47:11;0.75;;;0.70;;
49183;SDS011;35021;49.214;12.270;2023-04-15T04:49:39;0.88;;;0.75;;
49183;SDS011;35021;49.214;12.270;2023-04-15T04:52:06;2.17;;;0.88;;
49183;SDS011;35021;49.214;12.270;2023-04-15T04:54:34;0.93;;;0.70;;
49183;SDS011;35021;49.214;12.270;2023-04-15T04:57:01;0.80;;;0.75;;
49183;SDS011;35021;49.214;12.270;2023-04-15T04:59:28;0.95;;;0.63;;
49183;SDS011;35021;49.214;12.270;2023-04-15T05:01:55;0.88;;;0.52;;
49183;SDS011;35021;49.214;12.270;2023-04-15T05:04:22;1.95;;;0.80;;
49183;SDS011;35021;49.214;12.270;2023-04-15T05:06:49;0.52;;;0.52;;
49183;SDS011;35021;49.214;12.270;2023-04-15T05:09:16;0.77;;;0.65;;
49183;SDS011;35021;49.214;12.270;2023-04-15T05:11:44;1.02;;;0.65;;
49183;SDS011;35021;49.214;12.270;2023-04-15T05:14:10;0.88;;;0.70;;
49183;SDS011;35021;49.214;12.270;2023-04-15T05:16:37;0.93;;;0.65;;
49183;SDS011;35021;49.214;12.270;2023-04-15T05:19:04;1.08;;;0.70;;
49183;SDS011;35021;49.214;12.270;2023-04-15T05:21:31;1.95;;;0.77;;
49183;SDS011;35021;49.214;12.270;2023-04-15T05:23:58;0.70;;;0.70;;
49183;SDS011;35021;49.214;12.270;2023-04-15T05:26:25;1.13;;;0.77;;
49183;SDS011;35021;49.214;12.270;2023-04-15T05:28:53;0.93;;;0.60;;
49183;SDS011;35021;49.214;12.270;2023-04-15T05:31:20;0.60;;;0.50;;
49183;SDS011;35021;49.214;12.270;2023-04-15T05:33:47;0.77;;;0.52;;
49183;SDS011;35021;49.214;12.270;2023-04-15T05:36:15;0.50;;;0.50;;
49183;SDS011;35021;49.214;12.270;2023-04-15T05:38:42;0.88;;;0.40;;
49183;SDS011;35021;49.214;12.270;2023-04-15T05:41:09;0.73;;;0.60;;
49183;SDS011;35021;49.214;12.270;2023-04-15T05:43:36;1.15;;;0.70;;
49183;SDS011;35021;49.214;12.270;2023-04-15T05:46:03;0.40;;;0.40;;
49183;SDS011;35021;49.214;12.270;2023-04-15T05:48:30;1.25;;;0.73;;
49183;SDS011;35021;49.214;12.270;2023-04-15T05:50:57;0.68;;;0.60;;
49183;SDS011;35021;49.214;12.270;2023-04-15T05:53:24;0.65;;;0.40;;
49183;SDS011;35021;49.214;12.270;2023-04-15T05:55:51;0.70;;;0.43;;
49183;SDS011;35021;49.214;12.270;2023-04-15T05:58:18;1.05;;;0.60;;
49183;SDS011;35021;49.214;12.270;2023-04-15T06:00:45;0.47;;;0.40;;
49183;SDS011;35021;49.214;12.270;2023-04-15T06:03:12;1.48;;;0.70;;
49183;SDS011;35021;49.214;12.270;2023-04-15T06:05:39;0.47;;;0.47;;
49183;SDS011;35021;49.214;12.270;2023-04-15T06:08:06;0.80;;;0.50;;
49183;SDS011;35021;49.214;12.270;2023-04-15T06:10:34;0.73;;;0.43;;
49183;SDS011;35021;49.214;12.270;2023-04-15T06:13:02;0.32;;;0.32;;
49183;SDS011;35021;49.214;12.270;2023-04-15T06:15:29;0.70;;;0.52;;
49183;SDS011;35021;49.214;12.270;2023-04-15T06:17:58;0.50;;;0.50;;
49183;SDS011;35021;49.214;12.270;2023-04-15T06:20:25;0.93;;;0.50;;
49183;SDS011;35021;49.214;12.270;2023-04-15T06:22:52;0.50;;;0.50;;
49183;SDS011;35021;49.214;12.270;2023-04-15T06:25:19;2.53;;;0.60;;
49183;SDS011;35021;49.214;12.270;2023-04-15T06:27:46;0.73;;;0.50;;
49183;SDS011;35021;49.214;12.270;2023-04-15T06:30:13;1.15;;;0.60;;
49183;SDS011;35021;49.214;12.270;2023-04-15T06:32:40;0.45;;;0.43;;
49183;SDS011;35021;49.214;12.270;2023-04-15T06:35:07;0.50;;;0.50;;
49183;SDS011;35021;49.214;12.270;2023-04-15T06:37:34;1.20;;;0.70;;
49183;SDS011;35021;49.214;12.270;2023-04-15T06:40:01;0.40;;;0.40;;
49183;SDS011;35021;49.214;12.270;2023-04-15T06:42:30;0.52;;;0.52;;
49183;SDS011;35021;49.214;12.270;2023-04-15T06:44:57;0.88;;;0.70;;
49183;SDS011;35021;49.214;12.270;2023-04-15T06:47:24;1.17;;;0.68;;
49183;SDS011;35021;49.214;12.270;2023-04-15T06:49:51;0.88;;;0.63;;
49183;SDS011;35021;49.214;12.270;2023-04-15T06:52:18;0.82;;;0.55;;
49183;SDS011;35021;49.214;12.270;2023-04-15T06:54:45;0.80;;;0.55;;
49183;SDS011;35021;49.214;12.270;2023-04-15T06:57:12;0.80;;;0.50;;
49183;SDS011;35021;49.214;12.270;2023-04-15T06:59:39;0.73;;;0.70;;
49183;SDS011;35021;49.214;12.270;2023-04-15T07:02:06;1.10;;;0.63;;
49183;SDS011;35021;49.214;12.270;2023-04-15T07:04:37;0.88;;;0.60;;
49183;SDS011;35021;49.214;12.270;2023-04-15T07:07:05;0.80;;;0.52;;
49183;SDS011;35021;49.214;12.270;2023-04-15T07:09:33;0.60;;;0.60;;
49183;SDS011;35021;49.214;12.270;2023-04-15T07:12:00;0.60;;;0.50;;
49183;SDS011;35021;49.214;12.270;2023-04-15T07:14:27;0.65;;;0.43;;
49183;SDS011;35021;49.214;12.270;2023-04-15T07:16:55;0.68;;;0.40;;
49183;SDS011;35021;49.214;12.270;2023-04-15T07:19:23;0.60;;;0.60;;
49183;SDS011;35021;49.214;12.270;2023-04-15T07:21:49;0.55;;;0.40;;
49183;SDS011;35021;49.214;12.270;2023-04-15T07:24:16;0.57;;;0.52;;
49183;SDS011;35021;49.214;12.270;2023-04-15T07:26:45;0.80;;;0.43;;
49183;SDS011;35021;49.214;12.270;2023-04-15T07:29:12;1.67;;;0.60;;
49183;SDS011;35021;49.214;12.270;2023-04-15T07:31:39;0.30;;;0.30;;
49183;SDS011;35021;49.214;12.270;2023-04-15T07:34:07;0.45;;;0.40;;
49183;SDS011;35021;49.214;12.270;2023-04-15T07:36:34;0.43;;;0.40;;
49183;SDS011;35021;49.214;12.270;2023-04-15T07:39:02;0.52;;;0.30;;
49183;SDS011;35021;49.214;12.270;2023-04-15T07:41:30;0.75;;;0.50;;
49183;SDS011;35021;49.214;12.270;2023-04-15T07:43:57;0.40;;;0.30;;
49183;SDS011;35021;49.214;12.270;2023-04-15T07:46:24;0.30;;;0.30;;
49183;SDS011;35021;49.214;12.270;2023-04-15T07:48:53;0.30;;;0.20;;
49183;SDS011;35021;49.214;12.270;2023-04-15T07:51:20;0.45;;;0.30;;
49183;SDS011;35021;49.214;12.270;2023-04-15T07:53:47;0.40;;;0.30;;
49183;SDS011;35021;49.214;12.270;2023-04-15T07:56:15;0.65;;;0.40;;
49183;SDS011;35021;49.214;12.270;2023-04-15T07:58:42;0.40;;;0.40;;
49183;SDS011;35021;49.214;12.270;2023-04-15T08:01:09;0.30;;;0.30;;
49183;SDS011;35021;49.214;12.270;2023-04-15T08:03:37;1.17;;;0.30;;
49183;SDS011;35021;49.214;12.270;2023-04-15T08:06:04;0.32;;;0.30;;
49183;SDS011;35021;49.214;12.270;2023-04-15T08:08:31;0.30;;;0.30;;
49183;SDS011;35021;49.214;12.270;2023-04-15T08:10:58;0.30;;;0.25;;
49183;SDS011;35021;49.214;12.270;2023-04-15T08:13:26;0.28;;;0.20;;
49183;SDS011;35021;49.214;12.270;2023-04-15T08:18:42;0.35;;;0.28;;
49183;SDS011;35021;49.214;12.270;2023-04-15T08:21:09;0.77;;;0.30;;
49183;SDS011;35021;49.214;12.270;2023-04-15T08:23:36;0.52;;;0.40;;
49183;SDS011;35021;49.214;12.270;2023-04-15T08:26:04;0.77;;;0.40;;
49183;SDS011;35021;49.214;12.270;2023-04-15T08:28:31;0.65;;;0.40;;
49183;SDS011;35021;49.214;12.270;2023-04-15T08:30:58;0.60;;;0.32;;
49183;SDS011;35021;49.214;12.270;2023-04-15T08:33:25;0.43;;;0.40;;
49183;SDS011;35021;49.214;12.270;2023-04-15T08:35:54;1.38;;;0.40;;
49183;SDS011;35021;49.214;12.270;2023-04-15T08:38:20;0.30;;;0.30;;
49183;SDS011;35021;49.214;12.270;2023-04-15T08:40:48;1.23;;;0.40;;
49183;SDS011;35021;49.214;12.270;2023-04-15T08:43:23;0.75;;;0.35;;
49183;SDS011;35021;49.214;12.270;2023-04-15T08:45:54;0.80;;;0.30;;
49183;SDS011;35021;49.214;12.270;2023-04-15T08:48:21;0.40;;;0.40;;
49183;SDS011;35021;49.214;12.270;2023-04-15T08:50:50;0.20;;;0.20;;
49183;SDS011;35021;49.214;12.270;2023-04-15T08:53:18;0.30;;;0.30;;
49183;SDS011;35021;49.214;12.270;2023-04-15T08:55:45;0.30;;;0.30;;
49183;SDS011;35021;49.214;12.270;2023-04-15T08:58:16;0.40;;;0.32;;
49183;SDS011;35021;49.214;12.270;2023-04-15T09:00:45;0.60;;;0.43;;
49183;SDS011;35021;49.214;12.270;2023-04-15T09:03:12;0.25;;;0.25;;
49183;SDS011;35021;49.214;12.270;2023-04-15T09:05:40;0.40;;;0.32;;
49183;SDS011;35021;49.214;12.270;2023-04-15T09:08:07;0.60;;;0.50;;
49183;SDS011;35021;49.214;12.270;2023-04-15T09:10:35;0.35;;;0.35;;
49183;SDS011;35021;49.214;12.270;2023-04-15T09:13:02;1.13;;;0.68;;
49183;SDS011;35021;49.214;12.270;2023-04-15T09:15:29;0.68;;;0.30;;
49183;SDS011;35021;49.214;12.270;2023-04-15T09:17:58;1.00;;;0.50;;
49183;SDS011;35021;49.214;12.270;2023-04-15T09:20:26;0.43;;;0.35;;
49183;SDS011;35021;49.214;12.270;2023-04-15T09:22:53;0.50;;;0.40;;
49183;SDS011;35021;49.214;12.270;2023-04-15T09:27:51;0.60;;;0.40;;
49183;SDS011;35021;49.214;12.270;2023-04-15T09:30:26;0.65;;;0.30;;
49183;SDS011;35021;49.214;12.270;2023-04-15T09:32:58;0.68;;;0.40;;
49183;SDS011;35021;49.214;12.270;2023-04-15T09:35:36;0.55;;;0.47;;
49183;SDS011;35021;49.214;12.270;2023-04-15T09:38:06;1.15;;;0.50;;
49183;SDS011;35021;49.214;12.270;2023-04-15T09:40:38;0.52;;;0.40;;
49183;SDS011;35021;49.214;12.270;2023-04-15T09:43:08;0.88;;;0.43;;
49183;SDS011;35021;49.214;12.270;2023-04-15T09:45:38;0.30;;;0.30;;
49183;SDS011;35021;49.214;12.270;2023-04-15T09:48:17;1.15;;;0.40;;
49183;SDS011;35021;49.214;12.270;2023-04-15T09:50:49;0.55;;;0.40;;
49183;SDS011;35021;49.214;12.270;2023-04-15T09:53:19;0.40;;;0.30;;
49183;SDS011;35021;49.214;12.270;2023-04-15T09:55:51;0.50;;;0.40;;
49183;SDS011;35021;49.214;12.270;2023-04-15T10:00:50;0.50;;;0.40;;
49183;SDS011;35021;49.214;12.270;2023-04-15T10:03:28;0.32;;;0.32;;
49183;SDS011;35021;49.214;12.270;2023-04-15T10:05:58;0.45;;;0.40;;
49183;SDS011;35021;49.214;12.270;2023-04-15T10:08:27;0.63;;;0.35;;
49183;SDS011;35021;49.214;12.270;2023-04-15T10:10:55;0.52;;;0.40;;
49183;SDS011;35021;49.214;12.270;2023-04-15T10:13:23;0.40;;;0.40;;
49183;SDS011;35021;49.214;12.270;2023-04-15T10:18:28;0.30;;;0.30;;
49183;SDS011;35021;49.214;12.270;2023-04-15T10:21:00;0.68;;;0.45;;
49183;SDS011;35021;49.214;12.270;2023-04-15T10:23:27;0.30;;;0.30;;
49183;SDS011;35021;49.214;12.270;2023-04-15T10:25:54;0.65;;;0.30;;
49183;SDS011;35021;49.214;12.270;2023-04-15T10:28:22;0.93;;;0.30;;
49183;SDS011;35021;49.214;12.270;2023-04-15T10:30:50;0.90;;;0.47;;
49183;SDS011;35021;49.214;12.270;2023-04-15T10:33:20;0.50;;;0.40;;
49183;SDS011;35021;49.214;12.270;2023-04-15T10:35:49;0.50;;;0.38;;
49183;SDS011;35021;49.214;12.270;2023-04-15T10:38:31;0.65;;;0.30;;
49183;SDS011;35021;49.214;12.270;2023-04-15T10:43:52;0.40;;;0.40;;
49183;SDS011;35021;49.214;12.270;2023-04-15T10:46:22;1.05;;;0.40;;
49183;SDS011;35021;49.214;12.270;2023-04-15T10:48:59;0.50;;;0.40;;
49183;SDS011;35021;49.214;12.270;2023-04-15T10:51:49;0.50;;;0.50;;
49183;SDS011;35021;49.214;12.270;2023-04-15T10:54:30;0.50;;;0.50;;
49183;SDS011;35021;49.214;12.270;2023-04-15T10:59:32;0.70;;;0.60;;
49183;SDS011;35021;49.214;12.270;2023-04-15T11:02:03;0.20;;;0.20;;
49183;SDS011;35021;49.214;12.270;2023-04-15T11:12:46;0.50;;;0.40;;
49183;SDS011;35021;49.214;12.270;2023-04-15T11:15:35;0.47;;;0.30;;
49183;SDS011;35021;49.214;12.270;2023-04-15T11:18:13;0.80;;;0.40;;
49183;SDS011;35021;49.214;12.270;2023-04-15T11:20:51;0.60;;;0.43;;
49183;SDS011;35021;49.214;12.270;2023-04-15T11:23:27;0.77;;;0.50;;
49183;SDS011;35021;49.214;12.270;2023-04-15T11:26:03;0.30;;;0.30;;
49183;SDS011;35021;49.214;12.270;2023-04-15T11:28:35;0.63;;;0.30;;
49183;SDS011;35021;49.214;12.270;2023-04-15T11:31:05;1.42;;;0.43;;
49183;SDS011;35021;49.214;12.270;2023-04-15T11:33:33;0.25;;;0.20;;
49183;SDS011;35021;49.214;12.270;2023-04-15T11:36:00;0.40;;;0.20;;
49183;SDS011;35021;49.214;12.270;2023-04-15T11:38:28;0.75;;;0.45;;
49183;SDS011;35021;49.214;12.270;2023-04-15T11:40:54;1.15;;;0.35;;
49183;SDS011;35021;49.214;12.270;2023-04-15T11:43:21;0.30;;;0.30;;
49183;SDS011;35021;49.214;12.270;2023-04-15T11:48:21;1.17;;;0.40;;
49183;SDS011;35021;49.214;12.270;2023-04-15T11:50:55;1.23;;;0.45;;
49183;SDS011;35021;49.214;12.270;2023-04-15T11:53:39;0.30;;;0.30;;
49183;SDS011;35021;49.214;12.270;2023-04-15T11:56:18;0.30;;;0.30;;
49183;SDS011;35021;49.214;12.270;2023-04-15T11:58:47;0.40;;;0.28;;
49183;SDS011;35021;49.214;12.270;2023-04-15T12:01:18;0.68;;;0.40;;
49183;SDS011;35021;49.214;12.270;2023-04-15T12:03:45;0.40;;;0.40;;
49183;SDS011;35021;49.214;12.270;2023-04-15T12:06:16;0.52;;;0.50;;
49183;SDS011;35021;49.214;12.270;2023-04-15T12:09:00;0.65;;;0.40;;
49183;SDS011;35021;49.214;12.270;2023-04-15T12:11:34;2.10;;;0.47;;
49183;SDS011;35021;49.214;12.270;2023-04-15T12:16:39;0.68;;;0.60;;
49183;SDS011;35021;49.214;12.270;2023-04-15T12:19:40;0.68;;;0.60;;
49183;SDS011;35021;49.214;12.270;2023-04-15T12:22:11;1.08;;;0.40;;
49183;SDS011;35021;49.214;12.270;2023-04-15T12:24:39;0.98;;;0.55;;
49183;SDS011;35021;49.214;12.270;2023-04-15T12:27:09;0.50;;;0.40;;
49183;SDS011;35021;49.214;12.270;2023-04-15T12:29:37;0.95;;;0.50;;
49183;SDS011;35021;49.214;12.270;2023-04-15T12:34:37;0.30;;;0.30;;
49183;SDS011;35021;49.214;12.270;2023-04-15T12:37:05;0.50;;;0.40;;
49183;SDS011;35021;49.214;12.270;2023-04-15T12:39:35;0.40;;;0.40;;
49183;SDS011;35021;49.214;12.270;2023-04-15T12:42:06;0.50;;;0.50;;
49183;SDS011;35021;49.214;12.270;2023-04-15T12:44:35;0.77;;;0.57;;
49183;SDS011;35021;49.214;12.270;2023-04-15T12:47:03;1.08;;;0.40;;
49183;SDS011;35021;49.214;12.270;2023-04-15T12:49:31;1.42;;;0.50;;
49183;SDS011;35021;49.214;12.270;2023-04-15T12:51:59;0.73;;;0.30;;
49183;SDS011;35021;49.214;12.270;2023-04-15T12:54:28;0.75;;;0.45;;
49183;SDS011;35021;49.214;12.270;2023-04-15T12:56:55;0.40;;;0.40;;
49183;SDS011;35021;49.214;12.270;2023-04-15T12:59:22;0.38;;;0.35;;
49183;SDS011;35021;49.214;12.270;2023-04-15T13:01:49;0.50;;;0.40;;
49183;SDS011;35021;49.214;12.270;2023-04-15T13:04:18;0.30;;;0.30;;
49183;SDS011;35021;49.214;12.270;2023-04-15T13:06:46;0.47;;;0.40;;
49183;SDS011;35021;49.214;12.270;2023-04-15T13:09:13;0.98;;;0.40;;
49183;SDS011;35021;49.214;12.270;2023-04-15T13:11:41;0.40;;;0.40;;
49183;SDS011;35021;49.214;12.270;2023-04-15T13:14:08;0.55;;;0.32;;
49183;SDS011;35021;49.214;12.270;2023-04-15T13:16:38;0.60;;;0.43;;
49183;SDS011;35021;49.214;12.270;2023-04-15T13:19:06;0.30;;;0.30;;
49183;SDS011;35021;49.214;12.270;2023-04-15T13:21:33;0.50;;;0.40;;
49183;SDS011;35021;49.214;12.270;2023-04-15T13:24:01;0.52;;;0.40;;
49183;SDS011;35021;49.214;12.270;2023-04-15T13:26:30;0.55;;;0.40;;
49183;SDS011;35021;49.214;12.270;2023-04-15T13:28:57;0.35;;;0.30;;
49183;SDS011;35021;49.214;12.270;2023-04-15T13:31:24;0.75;;;0.40;;
49183;SDS011;35021;49.214;12.270;2023-04-15T13:33:51;2.05;;;0.68;;
49183;SDS011;35021;49.214;12.270;2023-04-15T13:36:18;0.68;;;0.50;;
49183;SDS011;35021;49.214;12.270;2023-04-15T13:38:45;0.90;;;0.50;;
49183;SDS011;35021;49.214;12.270;2023-04-15T13:41:16;0.50;;;0.50;;
49183;SDS011;35021;49.214;12.270;2023-04-15T13:43:43;0.73;;;0.40;;
49183;SDS011;35021;49.214;12.270;2023-04-15T13:46:09;1.42;;;0.50;;
49183;SDS011;35021;49.214;12.270;2023-04-15T13:48:36;0.57;;;0.40;;
49183;SDS011;35021;49.214;12.270;2023-04-15T13:51:03;1.00;;;0.47;;
49183;SDS011;35021;49.214;12.270;2023-04-15T13:53:30;0.60;;;0.32;;
49183;SDS011;35021;49.214;12.270;2023-04-15T13:56:05;0.47;;;0.40;;
49183;SDS011;35021;49.214;12.270;2023-04-15T13:58:32;0.30;;;0.30;;
49183;SDS011;35021;49.214;12.270;2023-04-15T14:00:59;1.33;;;0.50;;
49183;SDS011;35021;49.214;12.270;2023-04-15T14:03:29;0.50;;;0.50;;
49183;SDS011;35021;49.214;12.270;2023-04-15T14:05:56;0.50;;;0.45;;
49183;SDS011;35021;49.214;12.270;2023-04-15T14:08:24;0.85;;;0.65;;
49183;SDS011;35021;49.214;12.270;2023-04-15T14:10:51;0.70;;;0.50;;
49183;SDS011;35021;49.214;12.270;2023-04-15T14:13:17;0.82;;;0.57;;
49183;SDS011;35021;49.214;12.270;2023-04-15T14:15:45;0.77;;;0.45;;
49183;SDS011;35021;49.214;12.270;2023-04-15T14:18:12;0.93;;;0.50;;
49183;SDS011;35021;49.214;12.270;2023-04-15T14:20:40;0.52;;;0.45;;
49183;SDS011;35021;49.214;12.270;2023-04-15T14:23:07;0.80;;;0.40;;
49183;SDS011;35021;49.214;12.270;2023-04-15T14:25:33;0.63;;;0.50;;
49183;SDS011;35021;49.214;12.270;2023-04-15T14:28:01;0.70;;;0.40;;
49183;SDS011;35021;49.214;12.270;2023-04-15T14:30:29;0.50;;;0.50;;
49183;SDS011;35021;49.214;12.270;2023-04-15T14:32:56;0.98;;;0.50;;
49183;SDS011;35021;49.214;12.270;2023-04-15T14:35:23;0.80;;;0.50;;
49183;SDS011;35021;49.214;12.270;2023-04-15T14:37:52;0.68;;;0.60;;
49183;SDS011;35021;49.214;12.270;2023-04-15T14:40:19;1.10;;;0.63;;
49183;SDS011;35021;49.214;12.270;2023-04-15T14:42:47;1.05;;;0.70;;
49183;SDS011;35021;49.214;12.270;2023-04-15T14:45:14;1.45;;;0.60;;
49183;SDS011;35021;49.214;12.270;2023-04-15T14:47:41;0.80;;;0.57;;
49183;SDS011;35021;49.214;12.270;2023-04-15T14:50:08;0.52;;;0.50;;
49183;SDS011;35021;49.214;12.270;2023-04-15T14:52:35;1.05;;;0.70;;
49183;SDS011;35021;49.214;12.270;2023-04-15T14:55:05;0.73;;;0.60;;
49183;SDS011;35021;49.214;12.270;2023-04-15T14:57:33;0.93;;;0.60;;
49183;SDS011;35021;49.214;12.270;2023-04-15T15:00:01;1.25;;;0.60;;
49183;SDS011;35021;49.214;12.270;2023-04-15T15:02:29;0.95;;;0.60;;
49183;SDS011;35021;49.214;12.270;2023-04-15T15:05:05;0.75;;;0.50;;
49183;SDS011;35021;49.214;12.270;2023-04-15T15:07:32;0.90;;;0.60;;
49183;SDS011;35021;49.214;12.270;2023-04-15T15:09:59;1.75;;;0.50;;
49183;SDS011;35021;49.214;12.270;2023-04-15T15:12:26;0.73;;;0.43;;